Time;durP1;ratioP1;P1;durP2;ratioP2;P2;SDS_P1;SDS_P2;PMS_P1;PMS_P2;Temp;Humidity;BMP_temperature;BMP_pressure;BME280_temperature;BME280_humidity;BME280_pressure;Samples;Min_cycle;Max_cycle;Signal;HPM_P1;HPM_P2
2021/06/09 00:00:09;;;;;;;14.05;12.35;;;16.20;99.90;;;;;;5006611;28;20176;-81
2021/06/09 00:02:35;;;;;;;13.43;11.20;;;16.10;99.90;;;;;;5006755;28;20034;-81
2021/06/09 00:05:02;;;;;;;11.82;10.68;;;16.20;99.90;;;;;;5006584;28;20034;-81
2021/06/09 00:07:27;;;;;;;12.63;11.32;;;16.30;99.90;;;;;;5005418;28;20061;-81
2021/06/09 00:09:53;;;;;;;14.43;11.32;;;16.20;99.90;;;;;;5006453;28;20026;-80
2021/06/09 00:12:19;;;;;;;13.80;11.48;;;16.20;99.90;;;;;;5006697;28;20034;-81
2021/06/09 00:14:44;;;;;;;12.00;10.75;;;16.00;99.90;;;;;;5005033;28;20394;-81
2021/06/09 00:17:10;;;;;;;12.75;11.15;;;15.90;99.90;;;;;;5006434;28;20041;-81
2021/06/09 00:19:36;;;;;;;13.25;10.88;;;16.00;99.90;;;;;;5005299;28;20065;-81
2021/06/09 00:22:02;;;;;;;12.07;10.65;;;15.90;99.90;;;;;;5006398;28;20089;-81
2021/06/09 00:24:27;;;;;;;15.18;11.45;;;15.80;99.90;;;;;;5006267;28;20061;-81
2021/06/09 00:26:53;;;;;;;14.57;12.27;;;15.80;99.90;;;;;;5005112;28;20030;-81
2021/06/09 00:29:21;;;;;;;14.45;12.27;;;15.70;99.90;;;;;;5006478;28;20081;-81
2021/06/09 00:31:47;;;;;;;13.05;11.55;;;15.70;99.90;;;;;;4988922;28;20034;-81
2021/06/09 00:34:15;;;;;;;14.02;12.38;;;15.70;99.90;;;;;;5006607;28;20034;-81
2021/06/09 00:36:41;;;;;;;12.85;11.52;;;15.70;99.90;;;;;;5006052;28;20421;-82
2021/06/09 00:39:07;;;;;;;14.77;12.07;;;15.70;99.90;;;;;;5005123;28;20054;-81
2021/06/09 00:41:33;;;;;;;14.65;12.20;;;15.60;99.90;;;;;;5005195;28;20030;-81
2021/06/09 00:44:00;;;;;;;12.38;10.93;;;15.60;99.90;;;;;;5004985;28;20034;-82
2021/06/09 00:46:39;;;;;;;13.80;11.40;;;15.50;99.90;;;;;;5004928;28;20394;-81
2021/06/09 00:49:05;;;;;;;13.80;12.38;;;15.40;99.90;;;;;;5006558;28;20030;-82
2021/06/09 00:51:31;;;;;;;14.27;11.30;;;15.40;99.90;;;;;;5006149;28;20046;-81
2021/06/09 00:54:01;;;;;;;12.65;10.95;;;15.40;99.90;;;;;;5005937;28;20027;-81
2021/06/09 00:56:27;;;;;;;13.25;11.85;;;15.40;99.90;;;;;;5004523;28;20052;-81
2021/06/09 00:58:53;;;;;;;13.60;12.10;;;15.40;99.90;;;;;;4988774;28;20065;-81
2021/06/09 01:01:21;;;;;;;12.10;10.80;;;15.40;99.90;;;;;;5005993;28;20027;-81
2021/06/09 01:03:48;;;;;;;14.63;12.40;;;15.30;99.90;;;;;;5005952;28;20062;-81
2021/06/09 01:06:14;;;;;;;14.07;12.52;;;15.30;99.90;;;;;;5020951;28;20049;-82
2021/06/09 01:08:42;;;;;;;15.63;11.90;;;15.30;99.90;;;;;;5005955;28;20042;-82
2021/06/09 01:11:15;;;;;;;13.75;12.25;;;15.30;99.90;;;;;;5005775;28;20041;-82
2021/06/09 01:13:41;;;;;;;13.93;12.35;;;15.20;99.90;;;;;;5005904;28;20050;-82
2021/06/09 01:16:08;;;;;;;12.80;11.40;;;15.20;99.90;;;;;;5006047;28;20026;-82
2021/06/09 01:18:34;;;;;;;13.68;11.10;;;15.30;99.90;;;;;;5005845;28;20035;-82
2021/06/09 01:21:01;;;;;;;13.05;11.70;;;15.20;99.90;;;;;;5005941;28;20027;-82
2021/06/09 01:23:27;;;;;;;14.70;11.95;;;15.20;99.90;;;;;;5004712;28;20038;-82
2021/06/09 01:25:54;;;;;;;12.55;10.88;;;15.20;99.90;;;;;;5004427;28;20034;-82
2021/06/09 01:28:20;;;;;;;13.38;10.65;;;15.30;99.90;;;;;;5008155;28;20038;-82
2021/06/09 01:30:46;;;;;;;15.40;12.15;;;15.20;99.90;;;;;;5008203;28;20037;-81
2021/06/09 01:33:12;;;;;;;13.27;11.98;;;15.20;99.90;;;;;;4991899;28;20045;-82
2021/06/09 01:35:38;;;;;;;15.43;13.02;;;15.10;99.90;;;;;;5009218;28;20030;-80
2021/06/09 01:38:05;;;;;;;13.88;11.60;;;15.00;99.90;;;;;;5008262;28;20467;-81
2021/06/09 01:40:32;;;;;;;12.98;11.40;;;15.00;99.90;;;;;;5009181;28;20034;-81
2021/06/09 01:42:58;;;;;;;14.05;12.05;;;15.10;99.90;;;;;;5008125;28;20375;-80
2021/06/09 01:45:29;;;;;;;13.35;11.93;;;15.00;99.90;;;;;;5008087;28;20031;-81
2021/06/09 01:47:55;;;;;;;14.32;12.38;;;15.10;99.90;;;;;;5008005;28;20077;-81
2021/06/09 01:50:22;;;;;;;13.68;12.23;;;15.00;99.90;;;;;;5009314;28;20030;-81
2021/06/09 01:52:50;;;;;;;15.73;13.13;;;15.00;99.90;;;;;;5009035;28;20031;-81
2021/06/09 01:55:18;;;;;;;14.85;11.65;;;15.00;99.90;;;;;;5009135;28;20026;-81
2021/06/09 01:57:43;;;;;;;15.65;12.35;;;14.90;99.90;;;;;;5008781;28;20081;-80
2021/06/09 02:00:14;;;;;;;14.77;11.70;;;14.90;99.90;;;;;;5009089;28;20038;-81
2021/06/09 02:02:40;;;;;;;13.63;11.60;;;14.90;99.90;;;;;;5007807;28;20030;-82
2021/06/09 02:05:09;;;;;;;13.93;12.43;;;14.90;99.90;;;;;;5008936;28;20030;-81
2021/06/09 02:07:40;;;;;;;15.40;13.43;;;14.80;99.90;;;;;;5008652;28;20060;-81
2021/06/09 02:10:11;;;;;;;15.93;12.85;;;14.80;99.90;;;;;;5008774;28;20134;-81
2021/06/09 02:12:40;;;;;;;13.32;11.25;;;14.80;99.90;;;;;;5023643;28;20034;-81
2021/06/09 02:15:07;;;;;;;14.07;12.02;;;14.70;99.90;;;;;;5008697;28;20040;-81
2021/06/09 02:17:32;;;;;;;12.95;11.60;;;14.70;99.90;;;;;;5007085;28;20069;-80
2021/06/09 02:19:58;;;;;;;13.27;10.95;;;14.60;99.90;;;;;;5008640;28;20019;-80
2021/06/09 02:22:24;;;;;;;15.55;12.73;;;14.70;99.90;;;;;;5008263;28;20034;-81
2021/06/09 02:24:50;;;;;;;13.48;11.95;;;14.70;99.90;;;;;;5007113;28;20026;-81
2021/06/09 02:27:15;;;;;;;16.88;12.88;;;14.60;99.90;;;;;;4990876;28;20037;-82
2021/06/09 02:29:41;;;;;;;15.02;12.77;;;14.60;99.90;;;;;;5008381;28;20026;-81
2021/06/09 02:32:07;;;;;;;14.02;12.45;;;14.60;99.90;;;;;;5008254;28;20053;-81
2021/06/09 02:34:37;;;;;;;15.65;12.90;;;14.60;99.90;;;;;;5008284;28;20498;-81
2021/06/09 02:37:03;;;;;;;16.42;12.07;;;14.50;99.90;;;;;;5006628;28;20050;-81
2021/06/09 02:39:30;;;;;;;14.88;12.38;;;14.50;99.90;;;;;;4990241;28;20037;-81
2021/06/09 02:41:55;;;;;;;14.43;12.60;;;14.60;99.90;;;;;;5007902;28;20157;-82
2021/06/09 02:44:21;;;;;;;15.40;12.70;;;14.50;99.90;;;;;;5006919;28;20166;-81
2021/06/09 02:46:54;;;;;;;14.27;11.98;;;14.40;99.90;;;;;;5008074;28;20073;-81
2021/06/09 02:49:23;;;;;;;14.55;12.55;;;14.40;99.90;;;;;;5008212;28;20121;-81
2021/06/09 02:52:11;;;;;;;13.55;12.15;;;14.50;99.90;;;;;;5008006;28;20046;-79
2021/06/09 02:54:52;;;;;;;14.45;11.93;;;14.50;99.90;;;;;;5007967;28;20057;-81
2021/06/09 02:57:27;;;;;;;12.48;11.18;;;14.50;99.90;;;;;;5007436;28;20097;-81
2021/06/09 03:00:43;;;;;;;12.48;10.35;;;14.50;99.90;;;;;;5006598;28;20117;-81
2021/06/09 03:03:42;;;;;;;12.85;10.15;;;14.60;99.90;;;;;;5005291;28;20042;-81
2021/06/09 03:06:18;;;;;;;12.77;10.68;;;14.70;99.90;;;;;;5007491;28;20065;-81
2021/06/09 03:09:16;;;;;;;15.15;12.57;;;14.60;99.90;;;;;;5007701;28;20071;-81
2021/06/09 03:12:24;;;;;;;15.27;12.38;;;14.60;99.90;;;;;;5007022;28;20421;-80
2021/06/09 03:15:10;;;;;;;12.73;10.43;;;14.60;99.90;;;;;;4999778;28;20077;-82
2021/06/09 03:17:52;;;;;;;17.92;14.07;;;14.50;99.90;;;;;;5007414;28;20057;-81
2021/06/09 03:20:30;;;;;;;18.58;16.52;;;14.50;99.90;;;;;;5006254;28;20042;-81
2021/06/09 03:23:16;;;;;;;17.88;15.18;;;14.60;99.90;;;;;;5007408;28;20038;-81
2021/06/09 03:25:53;;;;;;;16.67;13.85;;;14.60;99.90;;;;;;5007392;28;20061;-81
2021/06/09 03:28:29;;;;;;;17.70;13.75;;;14.60;99.90;;;;;;5005943;28;20038;-81
2021/06/09 03:31:02;;;;;;;15.90;13.07;;;14.50;99.90;;;;;;5006292;28;20031;-81
2021/06/09 03:33:36;;;;;;;16.83;12.70;;;14.50;99.90;;;;;;5006991;28;20031;-80
2021/06/09 03:36:24;;;;;;;14.48;12.30;;;14.40;99.90;;;;;;5006995;28;20034;-81
2021/06/09 03:39:04;;;;;;;14.63;12.55;;;14.50;99.90;;;;;;5006468;28;20038;-80
2021/06/09 03:41:42;;;;;;;15.48;12.98;;;14.50;99.90;;;;;;5006497;28;20031;-81
2021/06/09 03:44:10;;;;;;;15.07;12.23;;;14.50;99.90;;;;;;5004878;28;20041;-80
2021/06/09 03:46:38;;;;;;;15.75;13.43;;;14.40;99.90;;;;;;5006156;28;20026;-80
2021/06/09 03:49:10;;;;;;;17.58;13.10;;;14.40;99.90;;;;;;5006137;28;20034;-79
2021/06/09 03:51:39;;;;;;;14.82;12.63;;;14.50;99.90;;;;;;5005541;28;20030;-80
2021/06/09 03:54:06;;;;;;;13.98;12.10;;;14.50;99.90;;;;;;5004824;28;20093;-81
2021/06/09 03:56:33;;;;;;;14.95;12.57;;;14.50;99.90;;;;;;5005910;28;20046;-81
2021/06/09 03:59:00;;;;;;;17.20;13.73;;;14.50;99.90;;;;;;5006053;28;20053;-81
2021/06/09 04:01:36;;;;;;;16.55;12.98;;;14.50;99.90;;;;;;5021278;28;20034;-80
2021/06/09 04:04:04;;;;;;;14.18;12.68;;;14.40;99.90;;;;;;5005969;28;20101;-80
2021/06/09 04:06:31;;;;;;;16.08;13.23;;;14.50;99.90;;;;;;5005931;28;20117;-80
2021/06/09 04:08:58;;;;;;;15.80;13.23;;;14.50;99.90;;;;;;5005882;28;20034;-80
2021/06/09 04:11:27;;;;;;;17.30;13.27;;;14.50;99.90;;;;;;5005923;28;20041;-80
2021/06/09 04:13:55;;;;;;;15.85;13.60;;;14.60;99.90;;;;;;5004544;28;20085;-80
2021/06/09 04:16:25;;;;;;;14.40;12.90;;;14.70;99.90;;;;;;5002727;28;20038;-80
2021/06/09 04:18:52;;;;;;;15.60;14.00;;;14.70;99.90;;;;;;5004499;28;20045;-81
2021/06/09 04:21:19;;;;;;;13.88;11.52;;;14.70;99.90;;;;;;5005808;28;20026;-80
2021/06/09 04:23:45;;;;;;;16.35;13.05;;;14.80;99.90;;;;;;5005403;28;20041;-81
2021/06/09 04:26:14;;;;;;;17.10;14.60;;;14.80;99.90;;;;;;5005803;28;20026;-81
2021/06/09 04:28:41;;;;;;;17.23;13.30;;;14.80;99.90;;;;;;4987790;28;20030;-81
2021/06/09 04:31:07;;;;;;;15.15;13.63;;;14.90;99.90;;;;;;5005254;28;20289;-81
2021/06/09 04:33:33;;;;;;;15.82;13.75;;;15.00;99.90;;;;;;5005247;28;20097;-80
2021/06/09 04:35:59;;;;;;;15.45;13.52;;;15.10;99.90;;;;;;5005287;28;20056;-80
2021/06/09 04:38:24;;;;;;;16.10;13.98;;;15.20;99.90;;;;;;5005371;28;20046;-81
2021/06/09 04:40:52;;;;;;;17.42;14.75;;;15.30;99.90;;;;;;5004142;28;20034;-81
2021/06/09 04:43:21;;;;;;;16.00;13.82;;;15.40;99.90;;;;;;5005178;28;20105;-79
2021/06/09 04:45:47;;;;;;;15.63;13.80;;;15.50;99.90;;;;;;5005026;28;20033;-80
2021/06/09 04:48:15;;;;;;;15.63;13.55;;;15.70;99.90;;;;;;4987294;28;20071;-81
2021/06/09 04:50:42;;;;;;;16.30;14.52;;;15.80;99.90;;;;;;4984407;28;20027;-81
2021/06/09 04:53:13;;;;;;;15.50;13.40;;;16.00;99.90;;;;;;4985746;28;20125;-81
2021/06/09 04:55:47;;;;;;;17.42;14.52;;;16.10;99.90;;;;;;4984331;28;20284;-81
2021/06/09 04:58:14;;;;;;;15.05;12.43;;;16.30;99.90;;;;;;5001479;28;20046;-81
2021/06/09 05:00:41;;;;;;;17.42;15.18;;;16.40;99.90;;;;;;5004828;28;20041;-81
2021/06/09 05:03:07;;;;;;;19.15;15.20;;;16.50;99.90;;;;;;5024100;28;20038;-81
2021/06/09 05:05:33;;;;;;;17.67;15.30;;;16.70;99.90;;;;;;5009331;28;20161;-80
2021/06/09 05:07:58;;;;;;;20.23;16.45;;;16.90;99.90;;;;;;5006113;28;20037;-81
2021/06/09 05:10:25;;;;;;;17.67;15.23;;;17.00;99.90;;;;;;5007956;28;20054;-81
2021/06/09 05:12:55;;;;;;;18.95;15.05;;;17.20;99.90;;;;;;5009194;28;20046;-81
2021/06/09 05:15:25;;;;;;;19.58;16.25;;;17.40;99.90;;;;;;5007177;28;20042;-80
2021/06/09 05:17:51;;;;;;;19.60;17.15;;;17.50;99.90;;;;;;5007398;28;20046;-81
2021/06/09 05:20:31;;;;;;;19.48;17.08;;;17.60;99.90;;;;;;4991217;28;20034;-80
2021/06/09 05:23:16;;;;;;;19.10;17.05;;;17.70;99.90;;;;;;5007306;28;20387;-81
2021/06/09 05:25:43;;;;;;;18.45;16.55;;;17.80;99.90;;;;;;5008714;28;20086;-79
2021/06/09 05:28:13;;;;;;;19.38;16.33;;;18.00;99.90;;;;;;5009071;28;20038;-79
2021/06/09 05:30:40;;;;;;;20.15;17.92;;;18.10;99.90;;;;;;5007251;28;20027;-82
2021/06/09 05:33:07;;;;;;;19.88;17.52;;;18.20;99.90;;;;;;5009087;28;20145;-81
2021/06/09 05:35:34;;;;;;;19.40;17.40;;;18.30;99.90;;;;;;5009083;28;20026;-80
2021/06/09 05:38:01;;;;;;;20.15;17.92;;;18.40;99.90;;;;;;5008868;28;20069;-81
2021/06/09 05:40:27;;;;;;;20.50;18.33;;;18.50;99.90;;;;;;5009157;28;20081;-81
2021/06/09 05:42:53;;;;;;;20.20;18.13;;;18.60;99.90;;;;;;5009149;28;20034;-80
2021/06/09 05:45:45;;;;;;;20.73;17.65;;;18.70;99.90;;;;;;4990988;28;20038;-81
2021/06/09 05:48:10;;;;;;;21.85;18.98;;;18.90;99.90;;;;;;5006097;28;20030;-81
2021/06/09 05:50:36;;;;;;;24.33;19.25;;;19.00;99.90;;;;;;5007276;28;20439;-81
2021/06/09 05:53:04;;;;;;;21.73;19.50;;;19.10;99.90;;;;;;4990935;28;20034;-81
2021/06/09 05:55:32;;;;;;;22.20;19.58;;;19.20;99.90;;;;;;4990755;28;20041;-81
2021/06/09 05:58:03;;;;;;;22.17;19.83;;;19.40;99.90;;;;;;5006992;28;20490;-82
2021/06/09 06:00:31;;;;;;;22.15;19.95;;;19.50;99.90;;;;;;5006701;28;20090;-82
2021/06/09 06:02:57;;;;;;;22.85;20.45;;;19.60;99.90;;;;;;5008533;28;20125;-81
2021/06/09 06:05:24;;;;;;;25.40;21.67;;;19.70;99.90;;;;;;5008225;28;20026;-82
2021/06/09 06:07:59;;;;;;;25.80;22.98;;;19.80;99.90;;;;;;5007591;28;20042;-81
2021/06/09 06:10:25;;;;;;;26.70;22.08;;;19.90;99.90;;;;;;4990313;28;20039;-82
2021/06/09 06:12:52;;;;;;;25.45;22.85;;;20.30;99.90;;;;;;5006053;28;20045;-81
2021/06/09 06:15:18;;;;;;;25.42;22.58;;;20.50;99.90;;;;;;5006562;28;20128;-81
2021/06/09 06:17:45;;;;;;;26.33;23.58;;;20.60;99.90;;;;;;5006550;28;20090;-82
2021/06/09 06:20:17;;;;;;;26.80;23.92;;;20.80;99.90;;;;;;5006355;28;20129;-81
2021/06/09 06:22:47;;;;;;;25.48;22.70;;;20.70;99.90;;;;;;5006694;28;20062;-81
2021/06/09 06:25:16;;;;;;;25.02;22.45;;;20.90;99.90;;;;;;5006472;28;20030;-81
2021/06/09 06:27:46;;;;;;;23.38;20.67;;;21.00;99.90;;;;;;5007918;28;20041;-81
2021/06/09 06:30:17;;;;;;;21.58;19.33;;;21.10;99.90;;;;;;5007807;28;20046;-81
2021/06/09 06:32:45;;;;;;;24.02;21.65;;;21.20;99.90;;;;;;5006515;28;20039;-81
2021/06/09 06:35:16;;;;;;;23.85;21.35;;;21.20;99.90;;;;;;5006662;28;20038;-81
2021/06/09 06:37:43;;;;;;;23.77;19.63;;;21.50;99.90;;;;;;5006171;28;20046;-81
2021/06/09 06:40:09;;;;;;;26.58;22.20;;;21.60;99.90;;;;;;5006338;28;20041;-81
2021/06/09 06:42:36;;;;;;;22.25;19.63;;;21.50;99.90;;;;;;4990051;28;20481;-80
2021/06/09 06:45:03;;;;;;;28.10;25.00;;;21.80;99.90;;;;;;5006385;28;20058;-81
2021/06/09 06:47:30;;;;;;;26.42;18.90;;;21.80;99.90;;;;;;5006675;28;20157;-81
2021/06/09 06:49:57;;;;;;;30.73;24.83;;;21.50;99.90;;;;;;5006334;28;20399;-81
2021/06/09 06:52:31;;;;;;;22.98;20.02;;;21.60;99.90;;;;;;5007614;28;20537;-81
2021/06/09 06:54:59;;;;;;;22.88;20.58;;;21.70;99.90;;;;;;4989938;28;20030;-81
2021/06/09 06:57:28;;;;;;;21.02;18.30;;;22.00;99.90;;;;;;5007188;28;20080;-81
2021/06/09 06:59:54;;;;;;;23.10;20.45;;;22.00;99.90;;;;;;5006152;28;20041;-81
2021/06/09 07:02:20;;;;;;;23.08;20.42;;;22.00;99.90;;;;;;4989541;28;20445;-81
2021/06/09 07:04:46;;;;;;;23.73;20.63;;;22.10;99.90;;;;;;5006137;28;20027;-81
2021/06/09 07:07:14;;;;;;;27.15;21.52;;;22.10;99.90;;;;;;5005591;28;20506;-82
2021/06/09 07:09:39;;;;;;;23.88;19.30;;;22.10;99.90;;;;;;5005712;28;20045;-81
2021/06/09 07:12:05;;;;;;;20.25;18.05;;;22.70;99.90;;;;;;5006848;28;20023;-81
2021/06/09 07:14:34;;;;;;;20.38;18.38;;;22.90;99.90;;;;;;5007014;28;20053;-81
2021/06/09 07:17:00;;;;;;;20.23;18.20;;;23.00;99.90;;;;;;5022172;28;20035;-81
2021/06/09 07:19:26;;;;;;;20.95;18.83;;;23.40;99.90;;;;;;5006958;28;20089;-81
2021/06/09 07:21:53;;;;;;;23.60;18.48;;;23.20;99.90;;;;;;4989250;28;20030;-81
2021/06/09 07:24:20;;;;;;;21.15;18.88;;;23.50;99.90;;;;;;5005750;28;20057;-81
2021/06/09 07:26:48;;;;;;;19.38;17.38;;;23.20;99.90;;;;;;5006774;28;20038;-81
2021/06/09 07:29:19;;;;;;;20.83;17.95;;;23.60;99.90;;;;;;5005550;28;20048;-82
2021/06/09 07:31:46;;;;;;;19.52;16.70;;;23.40;99.90;;;;;;5005241;28;20026;-81
2021/06/09 07:34:12;;;;;;;17.17;15.18;;;23.20;99.90;;;;;;5006468;28;20061;-81
2021/06/09 07:36:47;;;;;;;16.20;14.52;;;23.30;99.90;;;;;;5004998;28;20094;-82
2021/06/09 07:39:33;;;;;;;18.67;15.25;;;23.60;99.90;;;;;;4989196;28;20103;-82
2021/06/09 07:42:02;;;;;;;17.58;14.30;;;24.00;99.90;;;;;;5005164;28;20034;-82
2021/06/09 07:44:34;;;;;;;13.60;11.95;;;24.30;99.90;;;;;;5005295;28;20474;-82
2021/06/09 07:47:04;;;;;;;14.80;12.65;;;24.40;99.90;;;;;;5005185;28;20125;-82
2021/06/09 07:49:30;;;;;;;14.65;13.07;;;24.30;99.90;;;;;;5005039;28;20026;-81
2021/06/09 07:51:56;;;;;;;10.07;9.02;;;24.50;99.90;;;;;;5004965;28;20066;-82
2021/06/09 07:54:22;;;;;;;16.88;15.07;;;24.40;99.90;;;;;;5006460;28;20053;-81
2021/06/09 07:56:48;;;;;;;15.48;13.85;;;23.60;99.90;;;;;;5004556;28;20061;-81
2021/06/09 07:59:18;;;;;;;12.32;11.05;;;23.80;99.90;;;;;;5005015;28;20090;-82
2021/06/09 08:01:44;;;;;;;14.90;13.38;;;24.10;99.90;;;;;;5005034;28;20036;-81
2021/06/09 08:04:13;;;;;;;16.05;14.45;;;24.20;99.90;;;;;;5006058;28;20030;-82
2021/06/09 08:06:42;;;;;;;14.98;13.55;;;24.00;99.90;;;;;;5005938;28;20080;-81
2021/06/09 08:09:08;;;;;;;15.57;14.10;;;24.00;99.90;;;;;;5006000;28;20114;-81
2021/06/09 08:11:35;;;;;;;12.52;10.82;;;24.10;99.90;;;;;;5004354;28;20133;-81
2021/06/09 08:14:01;;;;;;;11.73;10.65;;;24.80;99.90;;;;;;5005900;28;20034;-82
2021/06/09 08:16:28;;;;;;;12.52;11.35;;;25.00;99.90;;;;;;5005816;28;20118;-81
2021/06/09 08:18:54;;;;;;;12.57;10.88;;;25.00;99.90;;;;;;5005698;28;20072;-81
2021/06/09 08:21:25;;;;;;;9.75;8.80;;;25.10;99.90;;;;;;5005666;28;20045;-82
2021/06/09 08:23:52;;;;;;;14.23;12.80;;;24.90;99.90;;;;;;5005748;28;20479;-82
2021/06/09 08:26:20;;;;;;;14.05;12.45;;;24.40;99.90;;;;;;5005649;28;20530;-82
2021/06/09 08:28:47;;;;;;;15.10;13.02;;;24.20;99.90;;;;;;5005669;28;20035;-81
2021/06/09 08:31:18;;;;;;;15.25;13.65;;;24.60;99.90;;;;;;5005501;28;20045;-81
2021/06/09 08:33:45;;;;;;;14.50;13.07;;;24.60;99.90;;;;;;5004082;28;20042;-80
2021/06/09 08:36:13;;;;;;;12.50;11.30;;;24.70;99.90;;;;;;4987937;28;20027;-82
2021/06/09 08:38:39;;;;;;;10.77;9.77;;;25.10;99.90;;;;;;5004231;28;20130;-82
2021/06/09 08:41:07;;;;;;;10.43;8.98;;;25.70;99.90;;;;;;4988037;28;20093;-82
2021/06/09 08:43:34;;;;;;;10.55;9.25;;;25.20;99.90;;;;;;5004174;28;20072;-82
2021/06/09 08:46:01;;;;;;;14.90;12.70;;;24.50;99.90;;;;;;5004445;28;20037;-82
2021/06/09 08:48:26;;;;;;;12.20;10.65;;;24.30;99.90;;;;;;5003987;28;20074;-81
2021/06/09 08:50:55;;;;;;;10.70;9.70;;;24.10;99.90;;;;;;4987842;28;20034;-81
2021/06/09 08:53:21;;;;;;;12.05;10.85;;;24.40;99.90;;;;;;5005304;28;20026;-81
2021/06/09 08:55:48;;;;;;;9.30;8.50;;;24.60;99.90;;;;;;5005477;28;20089;-78
2021/06/09 08:58:15;;;;;;;10.25;9.25;;;25.30;99.90;;;;;;5000457;28;20089;-81
2021/06/09 09:00:42;;;;;;;9.32;8.43;;;25.30;99.90;;;;;;4984575;28;20054;-81
2021/06/09 09:03:09;;;;;;;11.02;9.90;;;25.40;99.90;;;;;;4985731;28;20472;-82
2021/06/09 09:05:56;;;;;;;11.88;10.70;;;24.90;99.90;;;;;;5000642;28;20058;-81
2021/06/09 09:08:21;;;;;;;11.23;10.13;;;24.90;99.90;;;;;;4925844;29;20054;-82
2021/06/09 09:10:47;;;;;;;9.27;8.32;;;25.10;99.90;;;;;;4926163;29;20067;-80
2021/06/09 09:13:13;;;;;;;9.73;8.73;;;24.90;99.90;;;;;;4910118;29;20044;-81
2021/06/09 09:15:38;;;;;;;8.52;7.03;;;24.90;99.90;;;;;;4926090;29;20036;-81
2021/06/09 09:18:05;;;;;;;6.50;5.82;;;25.80;99.90;;;;;;4925866;29;20040;-81
2021/06/09 09:20:36;;;;;;;10.65;9.55;;;26.30;99.90;;;;;;4910078;29;20036;-82
2021/06/09 09:23:24;;;;;;;11.90;9.15;;;25.30;99.90;;;;;;4925874;29;20139;-82
2021/06/09 09:25:53;;;;;;;11.10;9.25;;;25.20;99.90;;;;;;4934213;29;20043;-80
2021/06/09 09:28:30;;;;;;;11.25;10.02;;;25.20;99.90;;;;;;4913175;29;20040;-81
2021/06/09 09:31:12;;;;;;;6.28;5.68;;;25.50;99.90;;;;;;4945041;29;20059;-81
2021/06/09 09:33:38;;;;;;;9.60;8.70;;;25.80;99.90;;;;;;4944753;29;20048;-81
2021/06/09 09:36:23;;;;;;;7.50;6.63;;;26.30;99.90;;;;;;4944682;29;20032;-80
2021/06/09 09:38:48;;;;;;;9.43;8.43;;;26.20;99.90;;;;;;4944610;29;20159;-82
2021/06/09 09:41:16;;;;;;;10.20;9.10;;;25.10;99.90;;;;;;4944912;29;20035;-82
2021/06/09 09:43:52;;;;;;;9.88;8.88;;;24.80;99.90;;;;;;4944882;29;20068;-83
2021/06/09 09:46:23;;;;;;;9.13;8.25;;;24.90;99.90;;;;;;4996074;28;20077;-81
2021/06/09 09:49:07;;;;;;;11.40;10.23;;;25.00;99.90;;;;;;5006815;28;20035;-81
2021/06/09 09:51:55;;;;;;;7.70;6.93;;;25.20;99.90;;;;;;5008458;28;20041;-81
2021/06/09 09:54:25;;;;;;;10.90;9.45;;;25.60;99.90;;;;;;4990863;28;20133;-82
2021/06/09 09:56:50;;;;;;;10.73;8.23;;;25.80;99.90;;;;;;5008187;28;20046;-82
2021/06/09 09:59:17;;;;;;;10.85;9.75;;;25.50;99.90;;;;;;5008476;28;20034;-82
2021/06/09 10:01:49;;;;;;;12.57;8.07;;;25.40;99.90;;;;;;5008461;28;20066;-81
2021/06/09 10:04:18;;;;;;;7.80;7.00;;;25.50;99.90;;;;;;5006907;28;20058;-81
2021/06/09 10:06:46;;;;;;;11.30;10.15;;;25.80;99.90;;;;;;5008063;28;20034;-81
2021/06/09 10:09:14;;;;;;;9.93;9.02;;;25.80;99.90;;;;;;5008105;28;20066;-80
2021/06/09 10:11:43;;;;;;;11.05;8.63;;;26.30;99.90;;;;;;5008073;28;20018;-81
2021/06/09 10:14:25;;;;;;;9.55;7.82;;;26.90;99.90;;;;;;5008224;28;20038;-82
2021/06/09 10:17:05;;;;;;;7.25;6.50;;;25.50;99.90;;;;;;5007067;28;20065;-82
2021/06/09 10:19:37;;;;;;;5.35;3.97;;;25.20;99.90;;;;;;5006851;28;20061;-81
2021/06/09 10:22:10;;;;;;;4.35;3.50;;;25.90;99.90;;;;;;5006819;28;20441;-80
2021/06/09 10:24:49;;;;;;;6.63;5.57;;;26.70;99.90;;;;;;5007962;28;20034;-82
2021/06/09 10:27:16;;;;;;;5.00;4.50;;;25.50;99.90;;;;;;4987333;28;20062;-81
2021/06/09 10:29:42;;;;;;;6.50;5.45;;;25.20;99.90;;;;;;4988393;28;20038;-81
2021/06/09 10:32:10;;;;;;;7.43;6.72;;;24.90;99.90;;;;;;4988346;28;20034;-81
2021/06/09 10:34:37;;;;;;;5.72;4.80;;;25.00;99.90;;;;;;4988247;28;20086;-81
2021/06/09 10:37:05;;;;;;;9.30;8.13;;;25.80;99.90;;;;;;4986514;28;20486;-81
2021/06/09 10:39:35;;;;;;;6.75;6.05;;;26.00;99.90;;;;;;4987008;28;20110;-82
2021/06/09 10:42:10;;;;;;;9.07;8.18;;;26.00;99.90;;;;;;4986988;28;20431;-81
2021/06/09 10:44:39;;;;;;;4.72;3.75;;;26.40;99.90;;;;;;4986903;28;20081;-82
2021/06/09 10:47:10;;;;;;;7.70;6.80;;;26.80;99.90;;;;;;4986796;28;20061;-82
2021/06/09 10:49:38;;;;;;;6.97;6.28;;;26.40;99.90;;;;;;4988040;28;20031;-81
2021/06/09 10:52:05;;;;;;;4.80;4.40;;;26.60;99.90;;;;;;4986481;28;20038;-82
2021/06/09 10:54:31;;;;;;;6.60;5.78;;;27.30;99.90;;;;;;4986756;28;20050;-82
2021/06/09 10:56:58;;;;;;;5.60;5.00;;;26.40;99.90;;;;;;4992153;28;20065;-81
2021/06/09 10:59:26;;;;;;;7.38;6.68;;;26.70;99.90;;;;;;5005785;28;20042;-82
2021/06/09 11:02:15;;;;;;;4.07;3.67;;;26.60;99.90;;;;;;5007317;28;20034;-83
2021/06/09 11:04:46;;;;;;;3.85;2.80;;;27.40;99.90;;;;;;4989159;28;20062;-81
2021/06/09 11:07:39;;;;;;;6.88;6.18;;;27.30;99.90;;;;;;5006815;28;20089;-82
2021/06/09 11:10:07;;;;;;;5.10;4.60;;;26.20;99.90;;;;;;5005602;28;20026;-81
2021/06/09 11:12:41;;;;;;;5.00;4.47;;;26.80;99.90;;;;;;5022049;28;20038;-82
2021/06/09 11:15:15;;;;;;;3.53;2.80;;;26.80;99.90;;;;;;5005570;28;20035;-82
2021/06/09 11:17:48;;;;;;;6.05;3.40;;;27.60;99.90;;;;;;5007185;28;20061;-82
2021/06/09 11:20:39;;;;;;;3.70;3.17;;;27.40;99.90;;;;;;5005610;28;20112;-82
2021/06/09 11:23:05;;;;;;;4.95;4.25;;;27.30;99.90;;;;;;5005558;28;20038;-82
2021/06/09 11:25:43;;;;;;;5.65;5.15;;;27.20;99.90;;;;;;5005431;28;20030;-83
2021/06/09 11:28:17;;;;;;;5.47;4.85;;;27.20;99.90;;;;;;5006943;28;20034;-82
2021/06/09 11:30:57;;;;;;;5.20;4.45;;;27.20;99.90;;;;;;5006769;28;20053;-82
2021/06/09 11:33:32;;;;;;;8.32;7.47;;;26.90;99.90;;;;;;5005741;28;20532;-82
2021/06/09 11:35:59;;;;;;;8.25;7.28;;;26.80;99.90;;;;;;5006408;28;20548;-81
2021/06/09 11:38:29;;;;;;;7.65;5.32;;;26.30;99.90;;;;;;5006467;28;20035;-82
2021/06/09 11:40:58;;;;;;;6.15;5.55;;;26.00;99.90;;;;;;5005239;28;20033;-81
2021/06/09 11:43:32;;;;;;;4.27;3.87;;;26.50;99.90;;;;;;5006598;28;20102;-82
2021/06/09 11:46:04;;;;;;;6.57;5.88;;;27.10;99.90;;;;;;4988792;28;20050;-81
2021/06/09 11:48:31;;;;;;;4.88;4.45;;;26.70;99.90;;;;;;5005068;28;20031;-81
2021/06/09 11:51:19;;;;;;;2.60;1.55;;;27.10;99.90;;;;;;5006150;28;20030;-81
2021/06/09 11:53:47;;;;;;;3.92;2.92;;;27.40;99.90;;;;;;5005020;28;20030;-82
2021/06/09 11:56:22;;;;;;;2.20;1.58;;;27.90;99.90;;;;;;5006000;28;20038;-82
2021/06/09 11:59:00;;;;;;;5.18;3.60;;;27.90;99.90;;;;;;4986912;28;20114;-82
2021/06/09 12:01:38;;;;;;;2.33;1.70;;;27.50;99.90;;;;;;4969276;28;20027;-82
2021/06/09 12:04:16;;;;;;;2.40;1.27;;;27.70;99.90;;;;;;4985592;28;20055;-82
2021/06/09 12:06:52;;;;;;;3.65;2.25;;;27.70;99.90;;;;;;4985248;28;20051;-81
2021/06/09 12:09:20;;;;;;;3.60;2.65;;;27.50;99.90;;;;;;5001323;28;20062;-81
2021/06/09 12:11:50;;;;;;;4.05;3.45;;;28.10;99.90;;;;;;4985808;28;20031;-81
2021/06/09 12:14:24;;;;;;;2.65;1.40;;;28.40;99.90;;;;;;4985153;28;20134;-82
2021/06/09 12:16:54;;;;;;;2.83;2.28;;;28.50;99.90;;;;;;4986570;28;20058;-83
2021/06/09 12:19:20;;;;;;;3.85;1.95;;;28.60;99.90;;;;;;4986497;28;20042;-82
2021/06/09 12:21:46;;;;;;;2.53;1.40;;;28.40;99.90;;;;;;4986447;28;20054;-81
2021/06/09 12:24:11;;;;;;;4.32;3.28;;;28.40;99.90;;;;;;4986322;28;20475;-81
2021/06/09 12:26:37;;;;;;;4.05;2.65;;;28.10;99.10;;;;;;5000830;28;20058;-83
2021/06/09 12:29:06;;;;;;;4.90;1.90;;;28.60;99.90;;;;;;5020850;28;20102;-83
2021/06/09 12:31:36;;;;;;;2.22;1.63;;;28.80;99.60;;;;;;5005529;28;20104;-83
2021/06/09 12:34:04;;;;;;;11.40;5.82;;;28.30;99.90;;;;;;5005639;28;20138;-81
2021/06/09 12:36:30;;;;;;;3.75;3.13;;;27.30;99.80;;;;;;5005538;28;20034;-84
2021/06/09 12:38:56;;;;;;;4.38;3.97;;;27.80;99.90;;;;;;5004170;28;20101;-82
2021/06/09 12:41:29;;;;;;;4.68;4.28;;;27.80;97.90;;;;;;5003969;28;20030;-82
2021/06/09 12:43:59;;;;;;;3.63;2.70;;;27.60;99.30;;;;;;5005442;28;20033;-82
2021/06/09 12:46:25;;;;;;;3.58;1.80;;;28.00;99.90;;;;;;5020692;28;20026;-82